sensor_id;sensor_type;location;lat;lon;timestamp;pressure;altitude;pressure_sealevel;temperature;humidity
35848;BME280;22332;51.954;20.118;2022-11-04T00:02:13;99846.08;;;8.44;76.37
35848;BME280;22332;51.954;20.118;2022-11-04T00:05:18;99831.70;;;8.42;76.46
35848;BME280;22332;51.954;20.118;2022-11-04T00:08:23;99830.94;;;8.41;76.41
35848;BME280;22332;51.954;20.118;2022-11-04T00:11:29;99831.47;;;8.35;76.52
35848;BME280;22332;51.954;20.118;2022-11-04T00:15:00;99817.94;;;8.32;76.57
35848;BME280;22332;51.954;20.118;2022-11-04T00:18:26;99828.72;;;8.34;76.61
35848;BME280;22332;51.954;20.118;2022-11-04T00:21:31;99824.50;;;8.39;76.56
35848;BME280;22332;51.954;20.118;2022-11-04T00:24:54;99822.98;;;8.42;76.63
35848;BME280;22332;51.954;20.118;2022-11-04T00:28:18;99815.67;;;8.43;76.45
35848;BME280;22332;51.954;20.118;2022-11-04T00:31:41;99819.80;;;8.44;76.37
35848;BME280;22332;51.954;20.118;2022-11-04T00:35:05;99813.60;;;8.42;76.50
35848;BME280;22332;51.954;20.118;2022-11-04T00:38:11;99807.52;;;8.39;76.40
35848;BME280;22332;51.954;20.118;2022-11-04T00:41:16;99799.82;;;8.35;76.44
35848;BME280;22332;51.954;20.118;2022-11-04T00:44:31;99795.20;;;8.27;76.57
35848;BME280;22332;51.954;20.118;2022-11-04T00:47:37;99792.58;;;8.21;76.62
35848;BME280;22332;51.954;20.118;2022-11-04T00:50:42;99788.57;;;8.15;76.68
35848;BME280;22332;51.954;20.118;2022-11-04T00:53:48;99781.25;;;8.14;76.65
35848;BME280;22332;51.954;20.118;2022-11-04T00:56:54;99775.09;;;8.15;76.84
35848;BME280;22332;51.954;20.118;2022-11-04T00:59:59;99767.23;;;8.16;76.69
35848;BME280;22332;51.954;20.118;2022-11-04T01:03:05;99763.59;;;8.15;76.82
35848;BME280;22332;51.954;20.118;2022-11-04T01:06:10;99762.12;;;8.14;76.82
35848;BME280;22332;51.954;20.118;2022-11-04T01:09:16;99754.12;;;8.09;76.84
35848;BME280;22332;51.954;20.118;2022-11-04T01:12:21;99747.29;;;8.06;76.98
35848;BME280;22332;51.954;20.118;2022-11-04T01:15:27;99742.13;;;8.02;76.98
35848;BME280;22332;51.954;20.118;2022-11-04T01:18:32;99743.55;;;8.01;77.20
35848;BME280;22332;51.954;20.118;2022-11-04T01:21:39;99738.90;;;8.01;77.15
35848;BME280;22332;51.954;20.118;2022-11-04T01:24:44;99732.35;;;8.05;77.27
35848;BME280;22332;51.954;20.118;2022-11-04T01:27:49;99731.35;;;8.10;77.39
35848;BME280;22332;51.954;20.118;2022-11-04T01:30:55;99730.80;;;8.14;77.15
35848;BME280;22332;51.954;20.118;2022-11-04T01:34:00;99736.58;;;8.18;77.17
35848;BME280;22332;51.954;20.118;2022-11-04T01:37:06;99733.35;;;8.20;77.21
35848;BME280;22332;51.954;20.118;2022-11-04T01:40:12;99733.73;;;8.21;77.15
35848;BME280;22332;51.954;20.118;2022-11-04T01:43:19;99730.14;;;8.20;77.11
35848;BME280;22332;51.954;20.118;2022-11-04T01:46:31;99713.50;;;8.18;77.19
35848;BME280;22332;51.954;20.118;2022-11-04T01:49:39;99702.70;;;8.15;77.30
35848;BME280;22332;51.954;20.118;2022-11-04T01:52:49;99695.58;;;8.13;77.31
35848;BME280;22332;51.954;20.118;2022-11-04T01:55:57;99694.51;;;8.15;77.34
35848;BME280;22332;51.954;20.118;2022-11-04T01:59:08;99690.23;;;8.21;77.32
35848;BME280;22332;51.954;20.118;2022-11-04T02:02:16;99691.08;;;8.25;77.18
35848;BME280;22332;51.954;20.118;2022-11-04T02:05:22;99689.95;;;8.29;77.17
35848;BME280;22332;51.954;20.118;2022-11-04T02:08:29;99681.05;;;8.31;77.16
35848;BME280;22332;51.954;20.118;2022-11-04T02:11:34;99673.40;;;8.30;77.20
35848;BME280;22332;51.954;20.118;2022-11-04T02:14:58;99669.75;;;8.25;77.14
35848;BME280;22332;51.954;20.118;2022-11-04T02:18:15;99664.55;;;8.22;77.20
35848;BME280;22332;51.954;20.118;2022-11-04T02:25:05;99652.40;;;8.18;77.41
35848;BME280;22332;51.954;20.118;2022-11-04T02:28:38;99655.55;;;8.20;77.36
35848;BME280;22332;51.954;20.118;2022-11-04T02:31:55;99650.52;;;8.26;77.43
35848;BME280;22332;51.954;20.118;2022-11-04T02:35:04;99648.44;;;8.31;77.27
35848;BME280;22332;51.954;20.118;2022-11-04T02:38:14;99649.14;;;8.33;77.36
35848;BME280;22332;51.954;20.118;2022-11-04T02:41:33;99645.45;;;8.33;77.40
35848;BME280;22332;51.954;20.118;2022-11-04T02:44:47;99646.70;;;8.31;77.37
35848;BME280;22332;51.954;20.118;2022-11-04T02:47:59;99641.24;;;8.30;77.39
35848;BME280;22332;51.954;20.118;2022-11-04T02:51:11;99640.70;;;8.29;77.55
35848;BME280;22332;51.954;20.118;2022-11-04T02:54:24;99639.61;;;8.25;77.43
35848;BME280;22332;51.954;20.118;2022-11-04T02:57:34;99639.36;;;8.23;77.51
35848;BME280;22332;51.954;20.118;2022-11-04T03:00:42;99641.64;;;8.25;77.58
35848;BME280;22332;51.954;20.118;2022-11-04T03:04:00;99636.70;;;8.30;77.55
35848;BME280;22332;51.954;20.118;2022-11-04T03:07:10;99632.31;;;8.35;77.58
35848;BME280;22332;51.954;20.118;2022-11-04T03:10:20;99628.25;;;8.38;77.58
35848;BME280;22332;51.954;20.118;2022-11-04T03:13:33;99626.23;;;8.39;77.51
35848;BME280;22332;51.954;20.118;2022-11-04T03:16:44;99629.41;;;8.37;77.44
35848;BME280;22332;51.954;20.118;2022-11-04T03:19:55;99622.22;;;8.35;77.56
35848;BME280;22332;51.954;20.118;2022-11-04T03:23:01;99624.11;;;8.33;77.71
35848;BME280;22332;51.954;20.118;2022-11-04T03:26:13;99619.24;;;8.29;77.59
35848;BME280;22332;51.954;20.118;2022-11-04T03:29:28;99621.36;;;8.28;77.82
35848;BME280;22332;51.954;20.118;2022-11-04T03:32:40;99623.54;;;8.29;77.84
35848;BME280;22332;51.954;20.118;2022-11-04T03:35:48;99618.39;;;8.34;77.79
35848;BME280;22332;51.954;20.118;2022-11-04T03:38:53;99615.86;;;8.38;77.70
35848;BME280;22332;51.954;20.118;2022-11-04T03:42:01;99611.31;;;8.41;77.74
35848;BME280;22332;51.954;20.118;2022-11-04T03:45:23;99602.34;;;8.42;77.75
35848;BME280;22332;51.954;20.118;2022-11-04T03:48:30;99602.34;;;8.42;77.76
35848;BME280;22332;51.954;20.118;2022-11-04T03:51:35;99593.59;;;8.41;77.75
35848;BME280;22332;51.954;20.118;2022-11-04T03:54:41;99589.13;;;8.38;77.69
35848;BME280;22332;51.954;20.118;2022-11-04T03:57:51;99588.41;;;8.33;77.84
35848;BME280;22332;51.954;20.118;2022-11-04T04:01:02;99583.70;;;8.30;77.84
35848;BME280;22332;51.954;20.118;2022-11-04T04:04:15;99572.64;;;8.31;78.11
35848;BME280;22332;51.954;20.118;2022-11-04T04:07:30;99577.77;;;8.34;78.10
35848;BME280;22332;51.954;20.118;2022-11-04T04:10:41;99572.18;;;8.41;78.00
35848;BME280;22332;51.954;20.118;2022-11-04T04:13:54;99576.89;;;8.43;77.97
35848;BME280;22332;51.954;20.118;2022-11-04T04:17:04;99575.52;;;8.43;77.99
35848;BME280;22332;51.954;20.118;2022-11-04T04:20:14;99572.43;;;8.43;78.02
35848;BME280;22332;51.954;20.118;2022-11-04T04:23:25;99567.21;;;8.43;78.04
35848;BME280;22332;51.954;20.118;2022-11-04T04:26:50;99563.64;;;8.39;77.88
35848;BME280;22332;51.954;20.118;2022-11-04T04:30:16;99568.98;;;8.34;78.05
35848;BME280;22332;51.954;20.118;2022-11-04T04:33:22;99565.11;;;8.32;78.14
35848;BME280;22332;51.954;20.118;2022-11-04T04:36:28;99564.51;;;8.32;78.12
35848;BME280;22332;51.954;20.118;2022-11-04T04:39:37;99561.17;;;8.35;78.12
35848;BME280;22332;51.954;20.118;2022-11-04T04:43:02;99559.34;;;8.41;77.98
35848;BME280;22332;51.954;20.118;2022-11-04T04:46:21;99560.18;;;8.46;77.95
35848;BME280;22332;51.954;20.118;2022-11-04T04:49:27;99560.29;;;8.46;77.96
35848;BME280;22332;51.954;20.118;2022-11-04T04:52:40;99556.11;;;8.44;77.95
35848;BME280;22332;51.954;20.118;2022-11-04T04:55:46;99556.42;;;8.42;77.89
35848;BME280;22332;51.954;20.118;2022-11-04T04:58:51;99549.98;;;8.41;78.01
35848;BME280;22332;51.954;20.118;2022-11-04T05:01:56;99544.84;;;8.37;77.97
35848;BME280;22332;51.954;20.118;2022-11-04T05:05:02;99540.58;;;8.36;78.02
35848;BME280;22332;51.954;20.118;2022-11-04T05:08:08;99537.33;;;8.40;78.06
35848;BME280;22332;51.954;20.118;2022-11-04T05:11:14;99535.05;;;8.43;77.96
35848;BME280;22332;51.954;20.118;2022-11-04T05:14:19;99538.13;;;8.48;78.06
35848;BME280;22332;51.954;20.118;2022-11-04T05:17:25;99528.98;;;8.51;77.87
35848;BME280;22332;51.954;20.118;2022-11-04T05:20:31;99528.27;;;8.51;77.84
35848;BME280;22332;51.954;20.118;2022-11-04T05:23:37;99533.59;;;8.51;77.85
35848;BME280;22332;51.954;20.118;2022-11-04T05:26:43;99524.97;;;8.50;77.86
35848;BME280;22332;51.954;20.118;2022-11-04T05:29:48;99525.23;;;8.48;77.77
35848;BME280;22332;51.954;20.118;2022-11-04T05:32:53;99537.33;;;8.42;77.82
35848;BME280;22332;51.954;20.118;2022-11-04T05:36:07;99539.97;;;8.40;77.98
35848;BME280;22332;51.954;20.118;2022-11-04T05:39:14;99537.16;;;8.40;77.91
35848;BME280;22332;51.954;20.118;2022-11-04T05:42:20;99534.70;;;8.43;78.02
35848;BME280;22332;51.954;20.118;2022-11-04T05:45:25;99526.29;;;8.48;77.99
35848;BME280;22332;51.954;20.118;2022-11-04T05:48:30;99529.17;;;8.49;77.97
35848;BME280;22332;51.954;20.118;2022-11-04T05:51:36;99528.58;;;8.48;78.00
35848;BME280;22332;51.954;20.118;2022-11-04T05:54:41;99538.64;;;8.49;78.01
35848;BME280;22332;51.954;20.118;2022-11-04T05:57:47;99545.04;;;8.46;77.93
35848;BME280;22332;51.954;20.118;2022-11-04T06:00:52;99538.13;;;8.43;77.93
35848;BME280;22332;51.954;20.118;2022-11-04T06:03:59;99542.83;;;8.40;78.04
35848;BME280;22332;51.954;20.118;2022-11-04T06:07:04;99547.27;;;8.38;78.20
35848;BME280;22332;51.954;20.118;2022-11-04T06:10:11;99541.20;;;8.38;78.17
35848;BME280;22332;51.954;20.118;2022-11-04T06:13:16;99551.95;;;8.41;78.16
35848;BME280;22332;51.954;20.118;2022-11-04T06:16:22;99550.66;;;8.43;78.31
35848;BME280;22332;51.954;20.118;2022-11-04T06:19:28;99544.09;;;8.44;78.27
35848;BME280;22332;51.954;20.118;2022-11-04T06:22:34;99546.25;;;8.43;78.50
35848;BME280;22332;51.954;20.118;2022-11-04T06:25:39;99549.34;;;8.44;78.65
35848;BME280;22332;51.954;20.118;2022-11-04T06:28:45;99553.91;;;8.44;78.56
35848;BME280;22332;51.954;20.118;2022-11-04T06:31:50;99559.98;;;8.42;78.61
35848;BME280;22332;51.954;20.118;2022-11-04T06:34:56;99559.87;;;8.40;78.71
35848;BME280;22332;51.954;20.118;2022-11-04T06:38:01;99555.32;;;8.41;78.83
35848;BME280;22332;51.954;20.118;2022-11-04T06:41:09;99550.28;;;8.45;78.88
35848;BME280;22332;51.954;20.118;2022-11-04T06:44:15;99546.05;;;8.52;78.77
35848;BME280;22332;51.954;20.118;2022-11-04T06:47:21;99538.77;;;8.56;78.77
35848;BME280;22332;51.954;20.118;2022-11-04T06:50:26;99535.67;;;8.60;78.90
35848;BME280;22332;51.954;20.118;2022-11-04T06:53:32;99530.42;;;8.61;78.89
35848;BME280;22332;51.954;20.118;2022-11-04T06:56:37;99530.23;;;8.61;78.86
35848;BME280;22332;51.954;20.118;2022-11-04T06:59:43;99530.77;;;8.59;79.12
35848;BME280;22332;51.954;20.118;2022-11-04T07:02:48;99525.48;;;8.57;79.25
35848;BME280;22332;51.954;20.118;2022-11-04T07:05:54;99515.04;;;8.57;79.48
35848;BME280;22332;51.954;20.118;2022-11-04T07:09:01;99505.21;;;8.58;79.56
35848;BME280;22332;51.954;20.118;2022-11-04T07:12:07;99507.11;;;8.58;79.76
35848;BME280;22332;51.954;20.118;2022-11-04T07:15:12;99514.05;;;8.58;79.79
35848;BME280;22332;51.954;20.118;2022-11-04T07:18:18;99524.67;;;8.58;79.87
35848;BME280;22332;51.954;20.118;2022-11-04T07:21:24;99528.94;;;8.62;79.72
35848;BME280;22332;51.954;20.118;2022-11-04T07:24:29;99529.73;;;8.64;79.99
35848;BME280;22332;51.954;20.118;2022-11-04T07:27:34;99522.79;;;8.70;79.98
35848;BME280;22332;51.954;20.118;2022-11-04T07:30:40;99512.33;;;8.78;79.99
35848;BME280;22332;51.954;20.118;2022-11-04T07:33:46;99510.95;;;8.86;79.95
35848;BME280;22332;51.954;20.118;2022-11-04T07:36:53;99501.90;;;8.95;79.93
35848;BME280;22332;51.954;20.118;2022-11-04T07:39:58;99501.35;;;9.05;79.95
35848;BME280;22332;51.954;20.118;2022-11-04T07:43:04;99498.34;;;9.14;80.10
35848;BME280;22332;51.954;20.118;2022-11-04T07:46:14;99499.35;;;9.19;79.85
35848;BME280;22332;51.954;20.118;2022-11-04T07:49:20;99494.34;;;9.23;79.93
35848;BME280;22332;51.954;20.118;2022-11-04T07:52:25;99490.17;;;9.23;79.80
35848;BME280;22332;51.954;20.118;2022-11-04T07:55:30;99480.90;;;9.26;79.88
35848;BME280;22332;51.954;20.118;2022-11-04T07:58:36;99485.27;;;9.35;79.90
35848;BME280;22332;51.954;20.118;2022-11-04T08:01:42;99491.98;;;9.45;80.04
35848;BME280;22332;51.954;20.118;2022-11-04T08:04:48;99484.73;;;9.56;79.69
35848;BME280;22332;51.954;20.118;2022-11-04T08:07:54;99478.54;;;9.68;79.56
35848;BME280;22332;51.954;20.118;2022-11-04T08:11:03;99471.41;;;9.76;79.62
35848;BME280;22332;51.954;20.118;2022-11-04T08:14:09;99472.88;;;9.79;79.73
35848;BME280;22332;51.954;20.118;2022-11-04T08:17:14;99475.75;;;9.84;79.49
35848;BME280;22332;51.954;20.118;2022-11-04T08:20:19;99475.50;;;9.86;79.59
35848;BME280;22332;51.954;20.118;2022-11-04T08:23:25;99471.46;;;9.90;79.59
35848;BME280;22332;51.954;20.118;2022-11-04T08:26:31;99466.94;;;9.96;79.58
35848;BME280;22332;51.954;20.118;2022-11-04T08:29:36;99461.29;;;10.07;79.21
35848;BME280;22332;51.954;20.118;2022-11-04T08:32:42;99453.46;;;10.22;79.36
35848;BME280;22332;51.954;20.118;2022-11-04T08:35:47;99452.80;;;10.34;79.18
35848;BME280;22332;51.954;20.118;2022-11-04T08:38:54;99448.13;;;10.44;79.11
35848;BME280;22332;51.954;20.118;2022-11-04T08:42:00;99447.65;;;10.55;78.87
35848;BME280;22332;51.954;20.118;2022-11-04T08:45:07;99441.49;;;10.60;79.05
35848;BME280;22332;51.954;20.118;2022-11-04T08:48:13;99441.80;;;10.61;78.73
35848;BME280;22332;51.954;20.118;2022-11-04T08:51:22;99440.01;;;10.58;78.83
35848;BME280;22332;51.954;20.118;2022-11-04T08:54:27;99438.69;;;10.58;78.82
35848;BME280;22332;51.954;20.118;2022-11-04T08:57:33;99440.70;;;10.61;78.77
35848;BME280;22332;51.954;20.118;2022-11-04T09:00:39;99442.00;;;10.66;78.39
35848;BME280;22332;51.954;20.118;2022-11-04T09:03:45;99435.91;;;10.69;78.49
35848;BME280;22332;51.954;20.118;2022-11-04T09:06:50;99437.13;;;10.74;78.49
35848;BME280;22332;51.954;20.118;2022-11-04T09:09:59;99437.83;;;10.79;78.51
35848;BME280;22332;51.954;20.118;2022-11-04T09:13:05;99436.75;;;10.84;78.30
35848;BME280;22332;51.954;20.118;2022-11-04T09:16:14;99433.81;;;10.89;78.20
35848;BME280;22332;51.954;20.118;2022-11-04T09:19:20;99428.86;;;10.95;78.17
35848;BME280;22332;51.954;20.118;2022-11-04T09:22:25;99427.03;;;11.02;78.29
35848;BME280;22332;51.954;20.118;2022-11-04T09:25:31;99423.58;;;11.07;78.31
35848;BME280;22332;51.954;20.118;2022-11-04T09:28:37;99423.98;;;11.16;78.34
35848;BME280;22332;51.954;20.118;2022-11-04T09:31:43;99409.83;;;11.26;77.79
35848;BME280;22332;51.954;20.118;2022-11-04T09:34:49;99402.05;;;11.38;77.84
35848;BME280;22332;51.954;20.118;2022-11-04T09:37:55;99399.79;;;11.48;77.51
35848;BME280;22332;51.954;20.118;2022-11-04T09:41:00;99394.22;;;11.51;77.20
35848;BME280;22332;51.954;20.118;2022-11-04T09:44:21;99394.86;;;11.51;76.96
35848;BME280;22332;51.954;20.118;2022-11-04T09:47:27;99394.71;;;11.44;77.35
35848;BME280;22332;51.954;20.118;2022-11-04T09:50:43;99398.21;;;11.42;77.42
35848;BME280;22332;51.954;20.118;2022-11-04T09:53:51;99401.16;;;11.41;77.14
35848;BME280;22332;51.954;20.118;2022-11-04T09:57:02;99389.69;;;11.43;77.49
35848;BME280;22332;51.954;20.118;2022-11-04T10:00:13;99393.55;;;11.48;77.41
35848;BME280;22332;51.954;20.118;2022-11-04T10:03:29;99384.23;;;11.53;77.03
35848;BME280;22332;51.954;20.118;2022-11-04T10:06:56;99372.95;;;11.60;76.85
35848;BME280;22332;51.954;20.118;2022-11-04T10:10:07;99378.71;;;11.68;76.99
35848;BME280;22332;51.954;20.118;2022-11-04T10:13:24;99378.13;;;11.79;76.83
35848;BME280;22332;51.954;20.118;2022-11-04T10:16:42;99372.96;;;11.90;76.73
35848;BME280;22332;51.954;20.118;2022-11-04T10:19:59;99373.27;;;12.01;76.41
35848;BME280;22332;51.954;20.118;2022-11-04T10:23:19;99374.90;;;12.06;76.41
35848;BME280;22332;51.954;20.118;2022-11-04T10:26:29;99371.66;;;12.13;76.22
35848;BME280;22332;51.954;20.118;2022-11-04T10:29:42;99367.65;;;12.12;75.93
35848;BME280;22332;51.954;20.118;2022-11-04T10:32:55;99367.56;;;12.08;75.65
35848;BME280;22332;51.954;20.118;2022-11-04T10:36:06;99376.48;;;12.01;76.07
35848;BME280;22332;51.954;20.118;2022-11-04T10:39:16;99375.73;;;11.95;76.15
35848;BME280;22332;51.954;20.118;2022-11-04T10:42:23;99371.44;;;11.88;76.38
35848;BME280;22332;51.954;20.118;2022-11-04T10:45:33;99371.30;;;11.81;76.37
35848;BME280;22332;51.954;20.118;2022-11-04T10:48:44;99366.23;;;11.74;76.13
35848;BME280;22332;51.954;20.118;2022-11-04T10:51:53;99367.15;;;11.68;76.14
35848;BME280;22332;51.954;20.118;2022-11-04T10:55:00;99367.95;;;11.66;76.19
35848;BME280;22332;51.954;20.118;2022-11-04T10:58:17;99367.15;;;11.65;76.00
35848;BME280;22332;51.954;20.118;2022-11-04T11:01:27;99368.01;;;11.70;76.07
35848;BME280;22332;51.954;20.118;2022-11-04T11:04:35;99366.87;;;11.79;76.35
35848;BME280;22332;51.954;20.118;2022-11-04T11:07:41;99366.58;;;11.88;75.96
35848;BME280;22332;51.954;20.118;2022-11-04T11:10:52;99365.36;;;11.95;75.82
35848;BME280;22332;51.954;20.118;2022-11-04T11:13:57;99361.25;;;12.00;75.87
35848;BME280;22332;51.954;20.118;2022-11-04T11:17:23;99359.79;;;12.05;75.77
35848;BME280;22332;51.954;20.118;2022-11-04T11:20:29;99353.01;;;12.06;75.77
35848;BME280;22332;51.954;20.118;2022-11-04T11:23:44;99350.80;;;12.07;75.75
35848;BME280;22332;51.954;20.118;2022-11-04T11:26:53;99347.74;;;12.08;75.59
35848;BME280;22332;51.954;20.118;2022-11-04T11:29:59;99341.09;;;12.09;75.63
35848;BME280;22332;51.954;20.118;2022-11-04T11:33:06;99332.29;;;12.09;75.56
35848;BME280;22332;51.954;20.118;2022-11-04T11:36:22;99328.05;;;12.09;75.65
35848;BME280;22332;51.954;20.118;2022-11-04T11:39:31;99323.82;;;12.13;75.67
35848;BME280;22332;51.954;20.118;2022-11-04T11:42:41;99322.33;;;12.18;75.60
35848;BME280;22332;51.954;20.118;2022-11-04T11:45:49;99321.50;;;12.22;75.64
35848;BME280;22332;51.954;20.118;2022-11-04T11:48:57;99323.30;;;12.25;75.42
35848;BME280;22332;51.954;20.118;2022-11-04T11:52:33;99326.10;;;12.26;75.53
35848;BME280;22332;51.954;20.118;2022-11-04T11:55:44;99321.86;;;12.25;75.35
35848;BME280;22332;51.954;20.118;2022-11-04T11:58:54;99325.83;;;12.23;75.38
35848;BME280;22332;51.954;20.118;2022-11-04T12:02:18;99323.88;;;12.22;75.31
35848;BME280;22332;51.954;20.118;2022-11-04T12:05:26;99320.34;;;12.22;75.55
35848;BME280;22332;51.954;20.118;2022-11-04T12:08:45;99319.91;;;12.21;75.37
35848;BME280;22332;51.954;20.118;2022-11-04T12:12:06;99318.23;;;12.18;75.45
35848;BME280;22332;51.954;20.118;2022-11-04T12:15:28;99311.52;;;12.18;75.62
35848;BME280;22332;51.954;20.118;2022-11-04T12:18:48;99313.98;;;12.19;75.77
35848;BME280;22332;51.954;20.118;2022-11-04T12:22:00;99300.75;;;12.24;75.61
35848;BME280;22332;51.954;20.118;2022-11-04T12:25:17;99302.45;;;12.29;75.60
35848;BME280;22332;51.954;20.118;2022-11-04T12:28:32;99301.32;;;12.37;75.50
35848;BME280;22332;51.954;20.118;2022-11-04T12:31:49;99295.23;;;12.43;75.33
35848;BME280;22332;51.954;20.118;2022-11-04T12:35:09;99295.49;;;12.47;75.12
35848;BME280;22332;51.954;20.118;2022-11-04T12:41:44;99297.38;;;12.46;74.89
35848;BME280;22332;51.954;20.118;2022-11-04T12:45:04;99299.94;;;12.47;75.06
35848;BME280;22332;51.954;20.118;2022-11-04T12:48:25;99295.41;;;12.47;74.98
35848;BME280;22332;51.954;20.118;2022-11-04T12:51:40;99296.45;;;12.43;74.85
35848;BME280;22332;51.954;20.118;2022-11-04T12:54:49;99300.95;;;12.41;74.83
35848;BME280;22332;51.954;20.118;2022-11-04T12:58:04;99306.39;;;12.38;74.86
35848;BME280;22332;51.954;20.118;2022-11-04T13:01:16;99303.01;;;12.35;74.90
35848;BME280;22332;51.954;20.118;2022-11-04T13:04:24;99302.73;;;12.31;74.77
35848;BME280;22332;51.954;20.118;2022-11-04T13:07:37;99303.62;;;12.27;74.91
35848;BME280;22332;51.954;20.118;2022-11-04T13:10:50;99306.84;;;12.28;75.07
35848;BME280;22332;51.954;20.118;2022-11-04T13:14:02;99309.92;;;12.31;75.00
35848;BME280;22332;51.954;20.118;2022-11-04T13:17:13;99310.66;;;12.34;75.05
35848;BME280;22332;51.954;20.118;2022-11-04T13:20:26;99310.00;;;12.34;74.92
35848;BME280;22332;51.954;20.118;2022-11-04T13:23:38;99311.15;;;12.34;74.77
35848;BME280;22332;51.954;20.118;2022-11-04T13:26:46;99313.10;;;12.31;74.83
35848;BME280;22332;51.954;20.118;2022-11-04T13:30:02;99309.67;;;12.27;75.02
35848;BME280;22332;51.954;20.118;2022-11-04T13:33:16;99307.69;;;12.23;74.92
35848;BME280;22332;51.954;20.118;2022-11-04T13:36:29;99304.08;;;12.21;74.90
35848;BME280;22332;51.954;20.118;2022-11-04T13:39:40;99297.57;;;12.16;74.93
35848;BME280;22332;51.954;20.118;2022-11-04T13:43:12;99296.45;;;12.13;75.04
35848;BME280;22332;51.954;20.118;2022-11-04T13:46:37;99295.40;;;12.08;74.98
35848;BME280;22332;51.954;20.118;2022-11-04T13:49:49;99290.90;;;12.07;75.15
35848;BME280;22332;51.954;20.118;2022-11-04T13:52:55;99290.68;;;12.09;75.05
35848;BME280;22332;51.954;20.118;2022-11-04T13:56:00;99293.89;;;12.09;75.02
35848;BME280;22332;51.954;20.118;2022-11-04T13:59:20;99289.75;;;12.09;75.10
35848;BME280;22332;51.954;20.118;2022-11-04T14:02:37;99285.79;;;12.06;75.08
35848;BME280;22332;51.954;20.118;2022-11-04T14:06:02;99283.68;;;12.05;74.97
35848;BME280;22332;51.954;20.118;2022-11-04T14:16:42;99284.59;;;11.90;75.09
35848;BME280;22332;51.954;20.118;2022-11-04T14:19:58;99293.59;;;11.84;75.18
35848;BME280;22332;51.954;20.118;2022-11-04T14:23:19;99292.13;;;11.80;75.25
35848;BME280;22332;51.954;20.118;2022-11-04T14:26:28;99297.48;;;11.80;75.27
35848;BME280;22332;51.954;20.118;2022-11-04T14:29:49;99299.63;;;11.82;75.12
35848;BME280;22332;51.954;20.118;2022-11-04T14:32:58;99296.91;;;11.84;75.27
35848;BME280;22332;51.954;20.118;2022-11-04T14:36:28;99298.08;;;11.84;75.13
35848;BME280;22332;51.954;20.118;2022-11-04T14:39:37;99293.35;;;11.82;75.18
35848;BME280;22332;51.954;20.118;2022-11-04T14:42:47;99295.10;;;11.78;75.24
35848;BME280;22332;51.954;20.118;2022-11-04T14:45:54;99301.75;;;11.74;75.24
35848;BME280;22332;51.954;20.118;2022-11-04T14:49:01;99301.18;;;11.68;75.07
35848;BME280;22332;51.954;20.118;2022-11-04T14:52:16;99301.06;;;11.64;75.26
35848;BME280;22332;51.954;20.118;2022-11-04T14:55:25;99304.48;;;11.59;75.24
35848;BME280;22332;51.954;20.118;2022-11-04T14:58:34;99302.51;;;11.54;75.26
35848;BME280;22332;51.954;20.118;2022-11-04T15:01:40;99306.11;;;11.54;75.10
35848;BME280;22332;51.954;20.118;2022-11-04T15:04:54;99307.29;;;11.56;75.25
35848;BME280;22332;51.954;20.118;2022-11-04T15:08:00;99305.40;;;11.57;75.13
35848;BME280;22332;51.954;20.118;2022-11-04T15:11:12;99307.39;;;11.58;75.03
35848;BME280;22332;51.954;20.118;2022-11-04T15:14:21;99304.52;;;11.57;74.96
35848;BME280;22332;51.954;20.118;2022-11-04T15:17:30;99307.80;;;11.55;74.97
35848;BME280;22332;51.954;20.118;2022-11-04T15:20:43;99306.10;;;11.51;74.95
35848;BME280;22332;51.954;20.118;2022-11-04T15:23:52;99300.05;;;11.48;75.10
35848;BME280;22332;51.954;20.118;2022-11-04T15:27:01;99293.62;;;11.44;75.04
35848;BME280;22332;51.954;20.118;2022-11-04T15:30:20;99305.77;;;11.40;75.05
35848;BME280;22332;51.954;20.118;2022-11-04T15:33:26;99311.96;;;11.35;74.99
35848;BME280;22332;51.954;20.118;2022-11-04T15:36:35;99311.25;;;11.30;75.06
35848;BME280;22332;51.954;20.118;2022-11-04T15:39:43;99310.02;;;11.30;75.18
35848;BME280;22332;51.954;20.118;2022-11-04T15:42:49;99310.67;;;11.33;75.29
35848;BME280;22332;51.954;20.118;2022-11-04T15:45:56;99307.37;;;11.37;75.27
35848;BME280;22332;51.954;20.118;2022-11-04T15:49:04;99308.56;;;11.39;75.24
35848;BME280;22332;51.954;20.118;2022-11-04T15:52:13;99314.32;;;11.40;74.96
35848;BME280;22332;51.954;20.118;2022-11-04T15:55:23;99313.64;;;11.38;75.17
35848;BME280;22332;51.954;20.118;2022-11-04T15:58:29;99316.09;;;11.36;75.04
35848;BME280;22332;51.954;20.118;2022-11-04T16:01:44;99315.84;;;11.32;74.80
35848;BME280;22332;51.954;20.118;2022-11-04T16:05:05;99312.47;;;11.27;74.78
35848;BME280;22332;51.954;20.118;2022-11-04T16:08:22;99309.27;;;11.23;75.27
35848;BME280;22332;51.954;20.118;2022-11-04T16:11:28;99308.02;;;11.17;75.14
35848;BME280;22332;51.954;20.118;2022-11-04T16:14:33;99306.45;;;11.13;75.14
35848;BME280;22332;51.954;20.118;2022-11-04T16:17:43;99303.31;;;11.14;75.18
35848;BME280;22332;51.954;20.118;2022-11-04T16:20:49;99306.58;;;11.17;75.14
35848;BME280;22332;51.954;20.118;2022-11-04T16:23:57;99306.90;;;11.19;74.88
35848;BME280;22332;51.954;20.118;2022-11-04T16:27:10;99307.86;;;11.19;75.18
35848;BME280;22332;51.954;20.118;2022-11-04T16:30:19;99309.95;;;11.20;75.03
35848;BME280;22332;51.954;20.118;2022-11-04T16:33:25;99301.30;;;11.18;75.25
35848;BME280;22332;51.954;20.118;2022-11-04T16:36:31;99298.34;;;11.14;75.24
35848;BME280;22332;51.954;20.118;2022-11-04T16:39:36;99301.02;;;11.11;75.44
35848;BME280;22332;51.954;20.118;2022-11-04T16:42:42;99299.10;;;11.06;75.53
35848;BME280;22332;51.954;20.118;2022-11-04T16:45:49;99301.33;;;10.99;75.52
35848;BME280;22332;51.954;20.118;2022-11-04T16:48:54;99302.64;;;10.94;75.92
35848;BME280;22332;51.954;20.118;2022-11-04T16:52:02;99300.92;;;10.90;76.00
35848;BME280;22332;51.954;20.118;2022-11-04T16:55:11;99294.32;;;10.92;76.25